sensor_id;sensor_type;location;lat;lon;timestamp;pressure;altitude;pressure_sealevel;temperature;humidity
49341;BME280;35209;51.050;13.678;2022-12-07T00:04:35;99712.47;;;2.17;100.00
49341;BME280;35209;51.050;13.678;2022-12-07T00:09:37;99710.72;;;2.22;100.00
49341;BME280;35209;51.050;13.678;2022-12-07T00:14:40;99703.84;;;2.14;100.00
49341;BME280;35209;51.050;13.678;2022-12-07T00:19:41;99696.00;;;2.24;100.00
49341;BME280;35209;51.050;13.678;2022-12-07T00:24:43;99689.91;;;2.44;100.00
49341;BME280;35209;51.050;13.678;2022-12-07T00:29:45;99685.69;;;2.15;100.00
49341;BME280;35209;51.050;13.678;2022-12-07T00:34:46;99684.81;;;2.18;100.00
49341;BME280;35209;51.050;13.678;2022-12-07T00:39:48;99688.25;;;2.20;100.00
49341;BME280;35209;51.050;13.678;2022-12-07T00:44:50;99688.25;;;2.15;100.00
49341;BME280;35209;51.050;13.678;2022-12-07T00:49:52;99683.03;;;2.29;100.00
49341;BME280;35209;51.050;13.678;2022-12-07T00:54:53;99683.97;;;2.14;100.00
49341;BME280;35209;51.050;13.678;2022-12-07T00:59:55;99679.66;;;2.07;100.00
49341;BME280;35209;51.050;13.678;2022-12-07T01:04:59;99670.97;;;2.23;100.00
49341;BME280;35209;51.050;13.678;2022-12-07T01:10:00;99676.97;;;2.33;100.00
49341;BME280;35209;51.050;13.678;2022-12-07T01:15:03;99666.63;;;2.27;100.00
49341;BME280;35209;51.050;13.678;2022-12-07T01:20:05;99664.06;;;2.18;100.00
49341;BME280;35209;51.050;13.678;2022-12-07T01:25:09;99663.13;;;2.33;100.00
49341;BME280;35209;51.050;13.678;2022-12-07T01:30:11;99666.59;;;2.30;100.00
49341;BME280;35209;51.050;13.678;2022-12-07T01:35:13;99655.34;;;2.36;100.00
49341;BME280;35209;51.050;13.678;2022-12-07T01:40:15;99665.78;;;2.23;100.00
49341;BME280;35209;51.050;13.678;2022-12-07T01:45:41;99661.50;;;2.13;100.00
49341;BME280;35209;51.050;13.678;2022-12-07T01:50:45;99658.94;;;1.96;100.00
49341;BME280;35209;51.050;13.678;2022-12-07T01:55:51;99664.94;;;2.08;100.00
49341;BME280;35209;51.050;13.678;2022-12-07T02:00:53;99670.16;;;1.98;100.00
49341;BME280;35209;51.050;13.678;2022-12-07T02:05:55;99669.34;;;1.95;100.00
49341;BME280;35209;51.050;13.678;2022-12-07T02:10:59;99669.41;;;1.64;100.00
49341;BME280;35209;51.050;13.678;2022-12-07T02:27:01;99657.31;;;1.62;100.00
49341;BME280;35209;51.050;13.678;2022-12-07T02:32:13;99653.84;;;1.58;100.00
49341;BME280;35209;51.050;13.678;2022-12-07T02:37:56;99646.94;;;1.49;100.00
49341;BME280;35209;51.050;13.678;2022-12-07T02:43:12;99643.53;;;1.38;100.00
49341;BME280;35209;51.050;13.678;2022-12-07T02:48:17;99639.19;;;1.45;100.00
49341;BME280;35209;51.050;13.678;2022-12-07T02:53:36;99623.66;;;1.37;100.00
49341;BME280;35209;51.050;13.678;2022-12-07T03:03:58;99621.91;;;1.45;100.00
49341;BME280;35209;51.050;13.678;2022-12-07T03:09:27;99621.06;;;1.51;100.00
49341;BME280;35209;51.050;13.678;2022-12-07T03:14:35;99614.16;;;1.53;100.00
49341;BME280;35209;51.050;13.678;2022-12-07T03:19:41;99608.13;;;1.34;100.00
49341;BME280;35209;51.050;13.678;2022-12-07T03:24:50;99602.97;;;1.42;100.00
49341;BME280;35209;51.050;13.678;2022-12-07T03:30:02;99601.25;;;1.18;100.00
49341;BME280;35209;51.050;13.678;2022-12-07T03:35:14;99596.06;;;1.38;100.00
49341;BME280;35209;51.050;13.678;2022-12-07T03:40:48;99595.22;;;1.25;100.00
49341;BME280;35209;51.050;13.678;2022-12-07T03:56:20;99581.41;;;1.12;100.00
49341;BME280;35209;51.050;13.678;2022-12-07T04:01:23;99578.81;;;1.20;100.00
49341;BME280;35209;51.050;13.678;2022-12-07T04:06:26;99577.06;;;1.31;100.00
49341;BME280;35209;51.050;13.678;2022-12-07T04:11:27;99566.72;;;1.23;100.00
49341;BME280;35209;51.050;13.678;2022-12-07T04:16:29;99561.56;;;1.10;100.00
49341;BME280;35209;51.050;13.678;2022-12-07T04:21:31;99541.69;;;1.19;100.00
49341;BME280;35209;51.050;13.678;2022-12-07T04:26:32;99549.44;;;1.32;98.40
49341;BME280;35209;51.050;13.678;2022-12-07T04:31:34;99545.16;;;1.14;99.33
49341;BME280;35209;51.050;13.678;2022-12-07T04:36:37;99542.56;;;1.14;99.10
49341;BME280;35209;51.050;13.678;2022-12-07T04:41:38;99526.19;;;1.07;98.63
49341;BME280;35209;51.050;13.678;2022-12-07T04:46:41;99514.97;;;1.13;97.75
49341;BME280;35209;51.050;13.678;2022-12-07T04:51:43;99506.34;;;1.20;96.90
49341;BME280;35209;51.050;13.678;2022-12-07T04:56:46;99511.47;;;1.23;96.12
49341;BME280;35209;51.050;13.678;2022-12-07T05:01:47;99507.16;;;1.23;96.15
49341;BME280;35209;51.050;13.678;2022-12-07T05:06:49;99499.44;;;1.16;96.97
49341;BME280;35209;51.050;13.678;2022-12-07T05:11:51;99497.69;;;1.16;96.78
49341;BME280;35209;51.050;13.678;2022-12-07T05:16:52;99502.00;;;1.19;95.96
49341;BME280;35209;51.050;13.678;2022-12-07T05:21:55;99500.28;;;1.10;97.29
49341;BME280;35209;51.050;13.678;2022-12-07T05:26:56;99505.53;;;0.93;98.57
49341;BME280;35209;51.050;13.678;2022-12-07T05:31:58;99497.69;;;1.18;96.29
49341;BME280;35209;51.050;13.678;2022-12-07T05:37:00;99498.56;;;1.21;95.93
49341;BME280;35209;51.050;13.678;2022-12-07T05:42:01;99488.19;;;1.24;95.68
49341;BME280;35209;51.050;13.678;2022-12-07T05:47:16;99486.47;;;1.17;96.13
49341;BME280;35209;51.050;13.678;2022-12-07T05:52:17;99473.44;;;1.37;93.78
49341;BME280;35209;51.050;13.678;2022-12-07T05:57:19;99469.13;;;1.47;93.18
49341;BME280;35209;51.050;13.678;2022-12-07T06:02:21;99471.63;;;1.65;92.24
49341;BME280;35209;51.050;13.678;2022-12-07T06:07:22;99470.72;;;1.71;91.50
49341;BME280;35209;51.050;13.678;2022-12-07T06:12:24;99465.53;;;1.75;92.20
49341;BME280;35209;51.050;13.678;2022-12-07T06:17:36;99460.25;;;1.92;91.08
49341;BME280;35209;51.050;13.678;2022-12-07T06:22:38;99447.25;;;1.98;90.12
49341;BME280;35209;51.050;13.678;2022-12-07T06:27:39;99450.69;;;1.99;90.33
49341;BME280;35209;51.050;13.678;2022-12-07T06:32:41;99445.59;;;1.85;92.54
49341;BME280;35209;51.050;13.678;2022-12-07T06:37:43;99447.28;;;1.92;93.45
49341;BME280;35209;51.050;13.678;2022-12-07T06:42:45;99449.06;;;1.81;96.77
49341;BME280;35209;51.050;13.678;2022-12-07T06:47:46;99450.78;;;1.85;98.17
49341;BME280;35209;51.050;13.678;2022-12-07T06:52:48;99454.25;;;1.81;100.00
49341;BME280;35209;51.050;13.678;2022-12-07T06:57:50;99455.13;;;1.77;100.00
49341;BME280;35209;51.050;13.678;2022-12-07T07:02:52;99455.19;;;1.74;100.00
49341;BME280;35209;51.050;13.678;2022-12-07T07:07:53;99461.19;;;1.76;100.00
49341;BME280;35209;51.050;13.678;2022-12-07T07:13:15;99452.56;;;1.79;100.00
49341;BME280;35209;51.050;13.678;2022-12-07T07:18:17;99468.19;;;1.62;100.00
49341;BME280;35209;51.050;13.678;2022-12-07T07:23:20;99465.63;;;1.54;100.00
49341;BME280;35209;51.050;13.678;2022-12-07T07:28:22;99472.53;;;1.54;100.00
49341;BME280;35209;51.050;13.678;2022-12-07T07:33:24;99470.84;;;1.46;100.00
49341;BME280;35209;51.050;13.678;2022-12-07T07:38:26;99478.59;;;1.52;100.00
49341;BME280;35209;51.050;13.678;2022-12-07T07:43:29;99481.13;;;1.63;100.00
49341;BME280;35209;51.050;13.678;2022-12-07T07:48:31;99484.53;;;1.77;100.00
49341;BME280;35209;51.050;13.678;2022-12-07T07:53:32;99482.81;;;1.75;100.00
49341;BME280;35209;51.050;13.678;2022-12-07T07:58:34;99490.53;;;1.84;100.00
49341;BME280;35209;51.050;13.678;2022-12-07T08:03:37;99485.28;;;1.99;100.00
49341;BME280;35209;51.050;13.678;2022-12-07T08:08:39;99482.63;;;2.02;100.00
49341;BME280;35209;51.050;13.678;2022-12-07T08:13:40;99487.72;;;2.19;100.00
49341;BME280;35209;51.050;13.678;2022-12-07T08:18:43;99486.00;;;2.21;100.00
49341;BME280;35209;51.050;13.678;2022-12-07T08:23:45;99471.22;;;2.33;100.00
49341;BME280;35209;51.050;13.678;2022-12-07T08:28:47;99466.84;;;2.39;100.00
49341;BME280;35209;51.050;13.678;2022-12-07T08:33:49;99476.28;;;2.49;100.00
49341;BME280;35209;51.050;13.678;2022-12-07T08:38:50;99476.31;;;2.45;100.00
49341;BME280;35209;51.050;13.678;2022-12-07T08:44:12;99483.16;;;2.53;100.00
49341;BME280;35209;51.050;13.678;2022-12-07T08:49:24;99483.09;;;2.61;100.00
49341;BME280;35209;51.050;13.678;2022-12-07T08:54:28;99487.34;;;2.71;100.00
49341;BME280;35209;51.050;13.678;2022-12-07T08:59:30;99486.44;;;2.74;100.00
49341;BME280;35209;51.050;13.678;2022-12-07T09:04:32;99486.28;;;2.91;100.00
49341;BME280;35209;51.050;13.678;2022-12-07T09:09:34;99490.44;;;3.07;99.44
49341;BME280;35209;51.050;13.678;2022-12-07T09:14:35;99492.16;;;3.08;98.47
49341;BME280;35209;51.050;13.678;2022-12-07T09:19:37;99491.31;;;3.08;98.92
49341;BME280;35209;51.050;13.678;2022-12-07T09:24:39;99490.22;;;3.28;96.85
49341;BME280;35209;51.050;13.678;2022-12-07T09:29:41;99490.06;;;3.45;95.17
49341;BME280;35209;51.050;13.678;2022-12-07T09:34:43;99499.56;;;3.45;94.67
49341;BME280;35209;51.050;13.678;2022-12-07T09:39:44;99500.44;;;3.44;93.31
49341;BME280;35209;51.050;13.678;2022-12-07T09:44:50;99496.09;;;3.44;94.67
49341;BME280;35209;51.050;13.678;2022-12-07T09:49:54;99486.47;;;3.52;92.65
49341;BME280;35209;51.050;13.678;2022-12-07T09:54:59;99495.81;;;3.67;92.05
49341;BME280;35209;51.050;13.678;2022-12-07T10:00:06;99483.63;;;3.74;91.97
49341;BME280;35209;51.050;13.678;2022-12-07T10:05:13;99476.72;;;3.73;91.32
49341;BME280;35209;51.050;13.678;2022-12-07T10:10:29;99458.44;;;3.76;93.01
49341;BME280;35209;51.050;13.678;2022-12-07T10:20:48;99463.34;;;3.99;91.18
49341;BME280;35209;51.050;13.678;2022-12-07T10:25:50;99457.91;;;4.14;90.86
49341;BME280;35209;51.050;13.678;2022-12-07T10:30:58;99462.94;;;4.26;89.08
49341;BME280;35209;51.050;13.678;2022-12-07T10:36:17;99458.78;;;4.16;90.32
49341;BME280;35209;51.050;13.678;2022-12-07T10:41:19;99458.72;;;4.21;90.00
49341;BME280;35209;51.050;13.678;2022-12-07T11:03:38;99436.88;;;4.29;92.18
49341;BME280;35209;51.050;13.678;2022-12-07T11:09:06;99428.91;;;4.40;91.70
49341;BME280;35209;51.050;13.678;2022-12-07T11:14:36;99423.41;;;4.57;89.69
49341;BME280;35209;51.050;13.678;2022-12-07T11:25:31;99426.41;;;4.33;91.85
49341;BME280;35209;51.050;13.678;2022-12-07T11:36:29;99429.78;;;3.82;99.73
49341;BME280;35209;51.050;13.678;2022-12-07T11:41:38;99427.44;;;3.64;100.00
49341;BME280;35209;51.050;13.678;2022-12-07T11:46:58;99417.97;;;3.60;100.00
49341;BME280;35209;51.050;13.678;2022-12-07T11:52:06;99412.84;;;3.55;100.00
49341;BME280;35209;51.050;13.678;2022-12-07T11:57:25;99415.25;;;3.67;100.00
49341;BME280;35209;51.050;13.678;2022-12-07T12:02:50;99413.22;;;3.88;99.75
49341;BME280;35209;51.050;13.678;2022-12-07T12:24:26;99398.72;;;4.28;95.26
49341;BME280;35209;51.050;13.678;2022-12-07T12:29:40;99416.22;;;4.19;95.39
49341;BME280;35209;51.050;13.678;2022-12-07T12:35:34;99418.25;;;3.38;100.00
49341;BME280;35209;51.050;13.678;2022-12-07T12:40:39;99411.75;;;3.00;100.00
49341;BME280;35209;51.050;13.678;2022-12-07T12:45:49;99410.97;;;2.94;100.00
49341;BME280;35209;51.050;13.678;2022-12-07T12:56:40;99421.47;;;2.82;100.00
49341;BME280;35209;51.050;13.678;2022-12-07T13:01:46;99406.06;;;2.65;100.00
49341;BME280;35209;51.050;13.678;2022-12-07T13:06:49;99407.81;;;2.66;100.00
49341;BME280;35209;51.050;13.678;2022-12-07T13:11:58;99413.00;;;2.66;100.00
49341;BME280;35209;51.050;13.678;2022-12-07T13:17:01;99394.06;;;2.55;100.00
49341;BME280;35209;51.050;13.678;2022-12-07T13:22:03;99396.72;;;2.50;100.00
49341;BME280;35209;51.050;13.678;2022-12-07T13:27:07;99405.38;;;2.46;100.00
49341;BME280;35209;51.050;13.678;2022-12-07T13:32:23;99397.78;;;2.24;100.00
49341;BME280;35209;51.050;13.678;2022-12-07T13:37:32;99398.56;;;2.34;100.00
49341;BME280;35209;51.050;13.678;2022-12-07T13:42:39;99405.50;;;2.35;100.00
49341;BME280;35209;51.050;13.678;2022-12-07T13:47:46;99404.72;;;2.24;100.00
49341;BME280;35209;51.050;13.678;2022-12-07T13:52:55;99396.69;;;2.51;100.00
49341;BME280;35209;51.050;13.678;2022-12-07T13:57:57;99403.53;;;2.62;100.00
49341;BME280;35209;51.050;13.678;2022-12-07T14:13:36;99397.22;;;2.83;100.00
49341;BME280;35209;51.050;13.678;2022-12-07T14:18:43;99394.59;;;2.89;100.00
49341;BME280;35209;51.050;13.678;2022-12-07T14:23:45;99398.56;;;3.20;100.00
49341;BME280;35209;51.050;13.678;2022-12-07T14:34:25;99390.63;;;3.31;100.00
49341;BME280;35209;51.050;13.678;2022-12-07T14:39:29;99376.72;;;3.37;100.00
49341;BME280;35209;51.050;13.678;2022-12-07T14:44:31;99373.22;;;3.36;100.00
49341;BME280;35209;51.050;13.678;2022-12-07T14:49:36;99376.66;;;3.40;100.00
49341;BME280;35209;51.050;13.678;2022-12-07T14:54:38;99380.88;;;3.47;100.00
49341;BME280;35209;51.050;13.678;2022-12-07T14:59:40;99379.28;;;3.38;100.00
49341;BME280;35209;51.050;13.678;2022-12-07T15:04:45;99381.94;;;3.34;100.00
49341;BME280;35209;51.050;13.678;2022-12-07T15:09:48;99386.09;;;3.47;98.81
49341;BME280;35209;51.050;13.678;2022-12-07T15:14:50;99393.28;;;3.26;99.78
49341;BME280;35209;51.050;13.678;2022-12-07T15:19:51;99395.09;;;3.18;100.00
49341;BME280;35209;51.050;13.678;2022-12-07T15:24:53;99401.00;;;3.33;97.23
49341;BME280;35209;51.050;13.678;2022-12-07T15:29:55;99394.06;;;3.33;98.23
49341;BME280;35209;51.050;13.678;2022-12-07T15:34:57;99396.00;;;3.14;98.93
49341;BME280;35209;51.050;13.678;2022-12-07T15:40:02;99390.56;;;3.37;94.16
49341;BME280;35209;51.050;13.678;2022-12-07T15:45:08;99399.06;;;3.50;92.21
49341;BME280;35209;51.050;13.678;2022-12-07T15:50:13;99388.00;;;3.31;93.74
49341;BME280;35209;51.050;13.678;2022-12-07T15:55:15;99391.69;;;3.15;95.04
49341;BME280;35209;51.050;13.678;2022-12-07T16:00:18;99391.88;;;2.96;97.45
49341;BME280;35209;51.050;13.678;2022-12-07T16:05:20;99394.53;;;2.93;99.35
49341;BME280;35209;51.050;13.678;2022-12-07T16:10:22;99396.53;;;2.68;100.00
49341;BME280;35209;51.050;13.678;2022-12-07T16:15:24;99400.72;;;2.78;100.00
49341;BME280;35209;51.050;13.678;2022-12-07T16:20:35;99398.19;;;2.75;100.00
49341;BME280;35209;51.050;13.678;2022-12-07T16:25:38;99400.28;;;3.18;95.35
49341;BME280;35209;51.050;13.678;2022-12-07T16:30:47;99401.13;;;3.23;93.96
49341;BME280;35209;51.050;13.678;2022-12-07T16:35:49;99400.53;;;2.98;94.87
49341;BME280;35209;51.050;13.678;2022-12-07T16:40:51;99402.38;;;2.89;96.03
49341;BME280;35209;51.050;13.678;2022-12-07T16:45:53;99398.78;;;3.00;94.69
49341;BME280;35209;51.050;13.678;2022-12-07T16:50:55;99395.94;;;3.20;92.78
49341;BME280;35209;51.050;13.678;2022-12-07T16:55:57;99401.53;;;2.85;94.55
49341;BME280;35209;51.050;13.678;2022-12-07T17:00:58;99408.41;;;2.92;94.73
49341;BME280;35209;51.050;13.678;2022-12-07T17:06:01;99402.28;;;2.96;94.08
49341;BME280;35209;51.050;13.678;2022-12-07T17:11:09;99395.53;;;2.78;96.28
49341;BME280;35209;51.050;13.678;2022-12-07T17:16:11;99396.03;;;3.13;94.17
49341;BME280;35209;51.050;13.678;2022-12-07T17:21:13;99392.56;;;3.14;94.02
49341;BME280;35209;51.050;13.678;2022-12-07T17:26:19;99404.81;;;3.02;95.03
49341;BME280;35209;51.050;13.678;2022-12-07T17:31:31;99398.72;;;3.05;95.20
49341;BME280;35209;51.050;13.678;2022-12-07T17:36:34;99398.00;;;2.94;97.11
49341;BME280;35209;51.050;13.678;2022-12-07T17:41:37;99400.47;;;3.03;96.09
49341;BME280;35209;51.050;13.678;2022-12-07T17:46:58;99398.03;;;2.88;97.08
49341;BME280;35209;51.050;13.678;2022-12-07T17:52:00;99399.78;;;2.87;96.00
49341;BME280;35209;51.050;13.678;2022-12-07T17:57:20;99403.97;;;3.00;94.97
49341;BME280;35209;51.050;13.678;2022-12-07T18:02:22;99403.13;;;2.98;95.82
49341;BME280;35209;51.050;13.678;2022-12-07T18:07:24;99404.09;;;2.90;96.68
49341;BME280;35209;51.050;13.678;2022-12-07T18:12:26;99410.28;;;2.76;97.64
49341;BME280;35209;51.050;13.678;2022-12-07T18:17:28;99410.97;;;2.94;95.81
49341;BME280;35209;51.050;13.678;2022-12-07T18:22:30;99413.44;;;3.04;94.17
49341;BME280;35209;51.050;13.678;2022-12-07T18:27:32;99407.72;;;2.73;95.96
49341;BME280;35209;51.050;13.678;2022-12-07T18:32:34;99406.94;;;2.64;95.63
49341;BME280;35209;51.050;13.678;2022-12-07T18:37:35;99410.44;;;2.63;94.93
49341;BME280;35209;51.050;13.678;2022-12-07T18:42:37;99410.47;;;2.61;93.01
49341;BME280;35209;51.050;13.678;2022-12-07T18:47:39;99405.31;;;2.55;93.36
49341;BME280;35209;51.050;13.678;2022-12-07T18:52:41;99410.59;;;2.44;93.83
49341;BME280;35209;51.050;13.678;2022-12-07T18:57:44;99411.50;;;2.39;94.32
49341;BME280;35209;51.050;13.678;2022-12-07T19:02:46;99413.28;;;2.32;94.74
49341;BME280;35209;51.050;13.678;2022-12-07T19:07:49;99403.94;;;2.11;97.00
49341;BME280;35209;51.050;13.678;2022-12-07T19:12:52;99407.47;;;2.02;98.89
49341;BME280;35209;51.050;13.678;2022-12-07T19:17:54;99410.00;;;2.12;99.08
49341;BME280;35209;51.050;13.678;2022-12-07T19:22:56;99397.88;;;2.14;98.54
49341;BME280;35209;51.050;13.678;2022-12-07T19:27:58;99397.78;;;2.24;98.48
49341;BME280;35209;51.050;13.678;2022-12-07T19:32:59;99396.03;;;2.31;97.79
49341;BME280;35209;51.050;13.678;2022-12-07T19:38:01;99399.44;;;2.35;97.79
49341;BME280;35209;51.050;13.678;2022-12-07T19:43:03;99395.13;;;2.35;97.62
49341;BME280;35209;51.050;13.678;2022-12-07T19:48:04;99398.53;;;2.39;97.73
49341;BME280;35209;51.050;13.678;2022-12-07T19:53:06;99394.19;;;2.44;97.30
49341;BME280;35209;51.050;13.678;2022-12-07T19:58:08;99397.44;;;2.63;95.32
49341;BME280;35209;51.050;13.678;2022-12-07T20:03:09;99391.53;;;2.50;96.60
49341;BME280;35209;51.050;13.678;2022-12-07T20:08:11;99399.28;;;2.51;96.70
49341;BME280;35209;51.050;13.678;2022-12-07T20:13:13;99382.00;;;2.50;96.60
49341;BME280;35209;51.050;13.678;2022-12-07T20:18:31;99389.75;;;2.55;96.59
49341;BME280;35209;51.050;13.678;2022-12-07T20:23:34;99381.97;;;2.53;96.00
49341;BME280;35209;51.050;13.678;2022-12-07T20:28:36;99384.50;;;2.61;95.50
49341;BME280;35209;51.050;13.678;2022-12-07T20:33:37;99382.06;;;2.43;95.99
49341;BME280;35209;51.050;13.678;2022-12-07T20:38:39;99385.31;;;2.65;94.33
49341;BME280;35209;51.050;13.678;2022-12-07T20:43:42;99381.09;;;2.55;94.85
49341;BME280;35209;51.050;13.678;2022-12-07T20:48:44;99375.06;;;2.51;95.49
49341;BME280;35209;51.050;13.678;2022-12-07T20:53:45;99375.16;;;2.42;95.21
49341;BME280;35209;51.050;13.678;2022-12-07T20:58:48;99379.53;;;2.40;95.67
49341;BME280;35209;51.050;13.678;2022-12-07T21:03:53;99371.03;;;2.19;96.95
49341;BME280;35209;51.050;13.678;2022-12-07T21:08:58;99377.97;;;2.16;97.68
49341;BME280;35209;51.050;13.678;2022-12-07T21:14:00;99383.19;;;2.14;97.58
49341;BME280;35209;51.050;13.678;2022-12-07T21:19:03;99378.84;;;2.15;97.47
49341;BME280;35209;51.050;13.678;2022-12-07T21:24:05;99383.00;;;2.37;95.35
49341;BME280;35209;51.050;13.678;2022-12-07T21:29:08;99377.00;;;2.29;95.93
49341;BME280;35209;51.050;13.678;2022-12-07T21:34:10;99378.81;;;2.22;96.18
49341;BME280;35209;51.050;13.678;2022-12-07T21:39:11;99375.34;;;2.23;95.79
49341;BME280;35209;51.050;13.678;2022-12-07T21:44:13;99374.38;;;2.34;95.27
49341;BME280;35209;51.050;13.678;2022-12-07T21:49:16;99378.81;;;2.22;95.72
49341;BME280;35209;51.050;13.678;2022-12-07T21:54:17;99364.06;;;2.27;95.77
49341;BME280;35209;51.050;13.678;2022-12-07T21:59:26;99365.75;;;2.30;94.81
49341;BME280;35209;51.050;13.678;2022-12-07T22:04:27;99370.84;;;2.41;94.18
49341;BME280;35209;51.050;13.678;2022-12-07T22:09:29;99363.25;;;2.19;96.34
49341;BME280;35209;51.050;13.678;2022-12-07T22:14:31;99367.41;;;2.40;94.53
49341;BME280;35209;51.050;13.678;2022-12-07T22:19:51;99374.22;;;2.50;94.36
49341;BME280;35209;51.050;13.678;2022-12-07T22:24:52;99375.88;;;2.58;93.59
49341;BME280;35209;51.050;13.678;2022-12-07T22:29:54;99375.03;;;2.56;93.46
49341;BME280;35209;51.050;13.678;2022-12-07T22:34:56;99373.31;;;2.55;93.37
49341;BME280;35209;51.050;13.678;2022-12-07T22:39:58;99362.97;;;2.51;93.73
49341;BME280;35209;51.050;13.678;2022-12-07T22:44:59;99365.50;;;2.56;94.40
49341;BME280;35209;51.050;13.678;2022-12-07T22:50:02;99354.16;;;2.65;93.23
49341;BME280;35209;51.050;13.678;2022-12-07T22:55:06;99356.72;;;2.69;92.67
49341;BME280;35209;51.050;13.678;2022-12-07T23:00:08;99354.19;;;2.66;93.19
49341;BME280;35209;51.050;13.678;2022-12-07T23:05:11;99350.72;;;2.66;92.72
49341;BME280;35209;51.050;13.678;2022-12-07T23:10:13;99341.19;;;2.65;92.26
49341;BME280;35209;51.050;13.678;2022-12-07T23:15:15;99347.16;;;2.73;91.23
49341;BME280;35209;51.050;13.678;2022-12-07T23:20:17;99340.34;;;2.66;92.04
49341;BME280;35209;51.050;13.678;2022-12-07T23:25:19;99341.25;;;2.62;91.65
49341;BME280;35209;51.050;13.678;2022-12-07T23:30:20;99338.66;;;2.62;91.46
49341;BME280;35209;51.050;13.678;2022-12-07T23:35:22;99337.75;;;2.66;90.75
49341;BME280;35209;51.050;13.678;2022-12-07T23:40:24;99340.38;;;2.63;91.17
49341;BME280;35209;51.050;13.678;2022-12-07T23:45:25;99334.28;;;2.67;90.79
49341;BME280;35209;51.050;13.678;2022-12-07T23:50:27;99331.69;;;2.64;91.32
49341;BME280;35209;51.050;13.678;2022-12-07T23:55:29;99318.94;;;2.45;92.59
